Terminal Aerodrome Forecast
Issued by NWS

Home | Current Version | Previous Version | Text Only | Print | Product List | Glossary On
Versions: 1 2 3 4 5 6 7 8 9 10 11 12 13 14 15 16 17
000
FTUS41 KBOX 241123
TAFBED
TAF
KBED 241123Z 2412/2512 00000KT P6SM BKN070
     FM241600 21006KT P6SM SCT100
     FM250300 20005KT P6SM BKN060
     FM250700 19004KT 5SM BR BKN015=

USA.gov is the U.S. government's official web portal to all federal, state and local government web resources and services.